sensor_id;sensor_type;location;lat;lon;timestamp;pressure;altitude;pressure_sealevel;temperature
19568;BMP280;9930;49.240;8.548;2022-09-09T00:07:47;100058.28;;;21.55
19568;BMP280;9930;49.240;8.548;2022-09-09T00:10:28;100044.50;;;21.50
19568;BMP280;9930;49.240;8.548;2022-09-09T00:16:19;100047.06;;;21.53
19568;BMP280;9930;49.240;8.548;2022-09-09T00:19:02;100044.44;;;21.54
19568;BMP280;9930;49.240;8.548;2022-09-09T00:21:41;100047.03;;;21.54
19568;BMP280;9930;49.240;8.548;2022-09-09T00:24:28;100044.44;;;21.54
19568;BMP280;9930;49.240;8.548;2022-09-09T00:27:29;100042.72;;;21.53
19568;BMP280;9930;49.240;8.548;2022-09-09T00:30:18;100046.19;;;21.54
19568;BMP280;9930;49.240;8.548;2022-09-09T00:32:53;100047.91;;;21.55
19568;BMP280;9930;49.240;8.548;2022-09-09T00:35:37;100036.75;;;21.48
19568;BMP280;9930;49.240;8.548;2022-09-09T00:38:37;100032.34;;;21.53
19568;BMP280;9930;49.240;8.548;2022-09-09T00:44:08;100047.06;;;21.53
19568;BMP280;9930;49.240;8.548;2022-09-09T00:47:15;100036.84;;;21.39
19568;BMP280;9930;49.240;8.548;2022-09-09T00:55:48;100052.38;;;21.42
19568;BMP280;9930;49.240;8.548;2022-09-09T00:58:14;100058.41;;;21.46
19568;BMP280;9930;49.240;8.548;2022-09-09T01:00:53;100054.97;;;21.42
19568;BMP280;9930;49.240;8.548;2022-09-09T01:03:54;100060.16;;;21.44
19568;BMP280;9930;49.240;8.548;2022-09-09T01:06:43;100061.06;;;21.41
19568;BMP280;9930;49.240;8.548;2022-09-09T01:09:52;100066.19;;;21.44
19568;BMP280;9930;49.240;8.548;2022-09-09T01:12:42;100061.88;;;21.43
19568;BMP280;9930;49.240;8.548;2022-09-09T01:15:26;100058.41;;;21.44
19568;BMP280;9930;49.240;8.548;2022-09-09T01:20:31;100042.81;;;21.47
19568;BMP280;9930;49.240;8.548;2022-09-09T01:28:47;100038.47;;;21.48
19568;BMP280;9930;49.240;8.548;2022-09-09T01:31:59;100050.59;;;21.47
19568;BMP280;9930;49.240;8.548;2022-09-09T01:34:36;100049.72;;;21.48
19568;BMP280;9930;49.240;8.548;2022-09-09T01:37:12;100063.53;;;21.49
19568;BMP280;9930;49.240;8.548;2022-09-09T01:39:44;100055.75;;;21.50
19568;BMP280;9930;49.240;8.548;2022-09-09T01:42:17;100052.31;;;21.48
19568;BMP280;9930;49.240;8.548;2022-09-09T01:44:42;100058.31;;;21.52
19568;BMP280;9930;49.240;8.548;2022-09-09T01:47:18;100064.38;;;21.51
19568;BMP280;9930;49.240;8.548;2022-09-09T01:49:44;100070.47;;;21.48
19568;BMP280;9930;49.240;8.548;2022-09-09T01:52:12;100058.47;;;21.40
19568;BMP280;9930;49.240;8.548;2022-09-09T01:54:41;100072.22;;;21.46
19568;BMP280;9930;49.240;8.548;2022-09-09T01:57:56;100074.84;;;21.43
19568;BMP280;9930;49.240;8.548;2022-09-09T02:00:27;100064.47;;;21.43
19568;BMP280;9930;49.240;8.548;2022-09-09T02:03:28;100059.34;;;21.40
19568;BMP280;9930;49.240;8.548;2022-09-09T02:06:45;100055.91;;;21.38
19568;BMP280;9930;49.240;8.548;2022-09-09T02:09:14;100059.34;;;21.39
19568;BMP280;9930;49.240;8.548;2022-09-09T02:11:44;100054.16;;;21.39
19568;BMP280;9930;49.240;8.548;2022-09-09T02:14:19;100053.28;;;21.40
19568;BMP280;9930;49.240;8.548;2022-09-09T02:16:48;100046.34;;;21.40
19568;BMP280;9930;49.240;8.548;2022-09-09T02:19:35;100048.97;;;21.39
19568;BMP280;9930;49.240;8.548;2022-09-09T02:22:14;100019.81;;;21.17
19568;BMP280;9930;49.240;8.548;2022-09-09T02:24:44;100060.22;;;21.39
19568;BMP280;9930;49.240;8.548;2022-09-09T02:27:13;100053.31;;;21.37
19568;BMP280;9930;49.240;8.548;2022-09-09T02:29:45;100043.00;;;21.30
19568;BMP280;9930;49.240;8.548;2022-09-09T02:32:17;100042.16;;;21.30
19568;BMP280;9930;49.240;8.548;2022-09-09T02:34:51;100049.88;;;21.34
19568;BMP280;9930;49.240;8.548;2022-09-09T02:37:24;100050.72;;;21.37
19568;BMP280;9930;49.240;8.548;2022-09-09T02:39:50;100046.41;;;21.36
19568;BMP280;9930;49.240;8.548;2022-09-09T02:42:19;100061.97;;;21.36
19568;BMP280;9930;49.240;8.548;2022-09-09T02:44:45;100053.34;;;21.33
19568;BMP280;9930;49.240;8.548;2022-09-09T02:47:30;100054.19;;;21.36
19568;BMP280;9930;49.240;8.548;2022-09-09T02:50:05;100046.44;;;21.32
19568;BMP280;9930;49.240;8.548;2022-09-09T02:55:52;100037.81;;;21.30
19568;BMP280;9930;49.240;8.548;2022-09-09T02:58:20;100036.97;;;21.30
19568;BMP280;9930;49.240;8.548;2022-09-09T03:00:52;100037.81;;;21.30
19568;BMP280;9930;49.240;8.548;2022-09-09T03:03:20;100036.13;;;21.29
19568;BMP280;9930;49.240;8.548;2022-09-09T03:05:49;100049.09;;;21.29
19568;BMP280;9930;49.240;8.548;2022-09-09T03:08:16;100043.91;;;21.28
19568;BMP280;9930;49.240;8.548;2022-09-09T03:10:42;100030.13;;;21.21
19568;BMP280;9930;49.240;8.548;2022-09-09T03:13:14;100029.22;;;21.27
19568;BMP280;9930;49.240;8.548;2022-09-09T03:15:43;100016.28;;;21.21
19568;BMP280;9930;49.240;8.548;2022-09-09T03:18:12;100032.72;;;21.24
19568;BMP280;9930;49.240;8.548;2022-09-09T03:20:42;100029.31;;;21.16
19568;BMP280;9930;49.240;8.548;2022-09-09T03:23:16;99997.56;;;20.96
19568;BMP280;9930;49.240;8.548;2022-09-09T03:25:51;100037.97;;;21.15
19568;BMP280;9930;49.240;8.548;2022-09-09T03:28:18;100037.13;;;21.13
19568;BMP280;9930;49.240;8.548;2022-09-09T03:30:46;100053.56;;;21.12
19568;BMP280;9930;49.240;8.548;2022-09-09T03:33:14;100021.69;;;21.02
19568;BMP280;9930;49.240;8.548;2022-09-09T03:35:46;100031.19;;;21.05
19568;BMP280;9930;49.240;8.548;2022-09-09T03:38:15;100044.97;;;21.09
19568;BMP280;9930;49.240;8.548;2022-09-09T03:40:56;100017.47;;;20.94
19568;BMP280;9930;49.240;8.548;2022-09-09T03:43:29;100045.84;;;21.08
19568;BMP280;9930;49.240;8.548;2022-09-09T03:45:55;100039.84;;;21.02
19568;BMP280;9930;49.240;8.548;2022-09-09T03:48:27;100045.81;;;21.11
19568;BMP280;9930;49.240;8.548;2022-09-09T03:50:54;100050.13;;;21.12
19568;BMP280;9930;49.240;8.548;2022-09-09T03:53:25;100050.97;;;21.14
19568;BMP280;9930;49.240;8.548;2022-09-09T03:55:55;100041.47;;;21.11
19568;BMP280;9930;49.240;8.548;2022-09-09T03:58:24;100039.69;;;21.18
19568;BMP280;9930;49.240;8.548;2022-09-09T04:01:05;100041.41;;;21.19
19568;BMP280;9930;49.240;8.548;2022-09-09T04:03:36;100023.31;;;21.13
19568;BMP280;9930;49.240;8.548;2022-09-09T04:06:07;100049.16;;;21.22
19568;BMP280;9930;49.240;8.548;2022-09-09T04:08:41;100034.47;;;21.19
19568;BMP280;9930;49.240;8.548;2022-09-09T04:11:11;100043.09;;;21.24
19568;BMP280;9930;49.240;8.548;2022-09-09T04:13:45;100037.06;;;21.19
19568;BMP280;9930;49.240;8.548;2022-09-09T04:16:12;100046.56;;;21.20
19568;BMP280;9930;49.240;8.548;2022-09-09T04:18:45;100047.44;;;21.22
19568;BMP280;9930;49.240;8.548;2022-09-09T04:21:14;100056.88;;;21.28
19568;BMP280;9930;49.240;8.548;2022-09-09T04:23:45;100059.47;;;21.28
19568;BMP280;9930;49.240;8.548;2022-09-09T04:26:12;100059.47;;;21.28
19568;BMP280;9930;49.240;8.548;2022-09-09T04:28:41;100058.59;;;21.29
19568;BMP280;9930;49.240;8.548;2022-09-09T04:31:17;100061.22;;;21.26
19568;BMP280;9930;49.240;8.548;2022-09-09T04:33:44;100062.91;;;21.30
19568;BMP280;9930;49.240;8.548;2022-09-09T04:36:15;100065.50;;;21.30
19568;BMP280;9930;49.240;8.548;2022-09-09T04:38:43;100066.38;;;21.29
19568;BMP280;9930;49.240;8.548;2022-09-09T04:41:12;100079.34;;;21.30
19568;BMP280;9930;49.240;8.548;2022-09-09T04:43:44;100078.47;;;21.30
19568;BMP280;9930;49.240;8.548;2022-09-09T04:46:13;100085.38;;;21.31
19568;BMP280;9930;49.240;8.548;2022-09-09T04:48:42;100086.25;;;21.30
19568;BMP280;9930;49.240;8.548;2022-09-09T04:51:13;100078.47;;;21.30
19568;BMP280;9930;49.240;8.548;2022-09-09T04:53:42;100076.81;;;21.24
19568;BMP280;9930;49.240;8.548;2022-09-09T04:56:14;100082.81;;;21.29
19568;BMP280;9930;49.240;8.548;2022-09-09T04:58:43;100075.91;;;21.27
19568;BMP280;9930;49.240;8.548;2022-09-09T05:01:28;100086.25;;;21.30
19568;BMP280;9930;49.240;8.548;2022-09-09T05:03:54;100079.34;;;21.30
19568;BMP280;9930;49.240;8.548;2022-09-09T05:06:22;100074.19;;;21.26
19568;BMP280;9930;49.240;8.548;2022-09-09T05:08:48;100075.88;;;21.31
19568;BMP280;9930;49.240;8.548;2022-09-09T05:11:26;100088.84;;;21.30
19568;BMP280;9930;49.240;8.548;2022-09-09T05:13:53;100075.97;;;21.22
19568;BMP280;9930;49.240;8.548;2022-09-09T05:16:20;100085.44;;;21.25
19568;BMP280;9930;49.240;8.548;2022-09-09T05:18:53;100090.66;;;21.23
19568;BMP280;9930;49.240;8.548;2022-09-09T05:21:23;100091.50;;;21.21
19568;BMP280;9930;49.240;8.548;2022-09-09T05:23:53;100087.25;;;21.15
19568;BMP280;9930;49.240;8.548;2022-09-09T05:26:21;100099.28;;;21.21
19568;BMP280;9930;49.240;8.548;2022-09-09T05:28:48;100089.00;;;21.15
19568;BMP280;9930;49.240;8.548;2022-09-09T05:31:16;100077.81;;;21.08
19568;BMP280;9930;49.240;8.548;2022-09-09T05:33:45;100108.81;;;21.20
19568;BMP280;9930;49.240;8.548;2022-09-09T05:36:19;100088.13;;;21.14
19568;BMP280;9930;49.240;8.548;2022-09-09T05:38:48;100101.91;;;21.22
19568;BMP280;9930;49.240;8.548;2022-09-09T05:41:16;100107.94;;;21.24
19568;BMP280;9930;49.240;8.548;2022-09-09T05:43:45;100097.56;;;21.20
19568;BMP280;9930;49.240;8.548;2022-09-09T05:46:18;100116.56;;;21.26
19568;BMP280;9930;49.240;8.548;2022-09-09T05:48:46;100113.94;;;21.29
19568;BMP280;9930;49.240;8.548;2022-09-09T05:51:16;100114.75;;;21.34
19568;BMP280;9930;49.240;8.548;2022-09-09T05:53:45;100113.84;;;21.39
19568;BMP280;9930;49.240;8.548;2022-09-09T05:56:17;100124.13;;;21.45
19568;BMP280;9930;49.240;8.548;2022-09-09T05:58:47;100104.28;;;21.42
19568;BMP280;9930;49.240;8.548;2022-09-09T06:01:20;100114.56;;;21.51
19568;BMP280;9930;49.240;8.548;2022-09-09T06:03:48;100117.06;;;21.57
19568;BMP280;9930;49.240;8.548;2022-09-09T06:06:18;100117.84;;;21.64
19568;BMP280;9930;49.240;8.548;2022-09-09T06:08:46;100116.03;;;21.71
19568;BMP280;9930;49.240;8.548;2022-09-09T06:11:21;100102.16;;;21.75
19568;BMP280;9930;49.240;8.548;2022-09-09T06:13:48;100109.03;;;21.79
19568;BMP280;9930;49.240;8.548;2022-09-09T06:16:20;100107.19;;;21.85
19568;BMP280;9930;49.240;8.548;2022-09-09T06:18:48;100107.94;;;21.95
19568;BMP280;9930;49.240;8.548;2022-09-09T06:21:23;100119.88;;;22.10
19568;BMP280;9930;49.240;8.548;2022-09-09T06:23:49;100124.09;;;22.18
19568;BMP280;9930;49.240;8.548;2022-09-09T06:26:31;100129.19;;;22.24
19568;BMP280;9930;49.240;8.548;2022-09-09T06:28:58;100127.34;;;22.33
19568;BMP280;9930;49.240;8.548;2022-09-09T06:31:27;100131.50;;;22.43
19568;BMP280;9930;49.240;8.548;2022-09-09T06:33:57;100116.63;;;22.54
19568;BMP280;9930;49.240;8.548;2022-09-09T06:36:27;100126.78;;;22.68
19568;BMP280;9930;49.240;8.548;2022-09-09T06:38:53;100117.09;;;22.77
19568;BMP280;9930;49.240;8.548;2022-09-09T06:41:27;100117.84;;;22.85
19568;BMP280;9930;49.240;8.548;2022-09-09T06:43:53;100117.72;;;22.93
19568;BMP280;9930;49.240;8.548;2022-09-09T06:46:22;100113.38;;;22.93
19568;BMP280;9930;49.240;8.548;2022-09-09T06:48:48;100108.91;;;23.02
19568;BMP280;9930;49.240;8.548;2022-09-09T06:51:22;100109.75;;;23.02
19568;BMP280;9930;49.240;8.548;2022-09-09T06:53:58;100120.91;;;23.09
19568;BMP280;9930;49.240;8.548;2022-09-09T06:56:34;100124.34;;;23.11
19568;BMP280;9930;49.240;8.548;2022-09-09T06:59:04;100119.19;;;23.08
19568;BMP280;9930;49.240;8.548;2022-09-09T07:01:42;100121.78;;;23.08
19568;BMP280;9930;49.240;8.548;2022-09-09T07:04:12;100120.97;;;23.06
19568;BMP280;9930;49.240;8.548;2022-09-09T07:06:45;100134.75;;;23.11
19568;BMP280;9930;49.240;8.548;2022-09-09T07:09:14;100136.47;;;23.12
19568;BMP280;9930;49.240;8.548;2022-09-09T07:11:49;100133.00;;;23.11
19568;BMP280;9930;49.240;8.548;2022-09-09T07:14:21;100143.25;;;23.19
19568;BMP280;9930;49.240;8.548;2022-09-09T07:16:47;100134.50;;;23.24
19568;BMP280;9930;49.240;8.548;2022-09-09T07:19:14;100140.38;;;23.34
19568;BMP280;9930;49.240;8.548;2022-09-09T07:21:42;100120.38;;;23.36
19568;BMP280;9930;49.240;8.548;2022-09-09T07:24:12;100139.19;;;23.50
19568;BMP280;9930;49.240;8.548;2022-09-09T07:26:44;100119.22;;;23.51
19568;BMP280;9930;49.240;8.548;2022-09-09T07:29:12;100132.81;;;23.67
19568;BMP280;9930;49.240;8.548;2022-09-09T07:31:42;100118.03;;;23.69
19568;BMP280;9930;49.240;8.548;2022-09-09T07:34:11;100125.72;;;23.75
19568;BMP280;9930;49.240;8.548;2022-09-09T07:36:44;100110.38;;;23.61
19568;BMP280;9930;49.240;8.548;2022-09-09T07:39:14;100124.78;;;23.77
19568;BMP280;9930;49.240;8.548;2022-09-09T07:41:45;100122.34;;;23.70
19568;BMP280;9930;49.240;8.548;2022-09-09T07:44:16;100131.75;;;23.77
19568;BMP280;9930;49.240;8.548;2022-09-09T07:46:43;100131.75;;;23.77
19568;BMP280;9930;49.240;8.548;2022-09-09T07:49:15;100131.66;;;23.81
19568;BMP280;9930;49.240;8.548;2022-09-09T07:51:47;100121.88;;;23.91
19568;BMP280;9930;49.240;8.548;2022-09-09T07:54:16;100133.72;;;24.06
19568;BMP280;9930;49.240;8.548;2022-09-09T07:56:46;100130.88;;;24.16
19568;BMP280;9930;49.240;8.548;2022-09-09T07:59:16;100124.63;;;24.23
19568;BMP280;9930;49.240;8.548;2022-09-09T08:01:49;100132.06;;;24.42
19568;BMP280;9930;49.240;8.548;2022-09-09T08:04:21;100125.66;;;24.55
19568;BMP280;9930;49.240;8.548;2022-09-09T08:06:57;100138.13;;;24.78
19568;BMP280;9930;49.240;8.548;2022-09-09T08:09:24;100146.44;;;24.94
19568;BMP280;9930;49.240;8.548;2022-09-09T08:11:52;100132.25;;;25.05
19568;BMP280;9930;49.240;8.548;2022-09-09T08:14:18;100134.38;;;25.24
19568;BMP280;9930;49.240;8.548;2022-09-09T08:16:47;100135.69;;;25.38
19568;BMP280;9930;49.240;8.548;2022-09-09T08:19:13;100132.09;;;25.42
19568;BMP280;9930;49.240;8.548;2022-09-09T08:21:44;100137.13;;;25.50
19568;BMP280;9930;49.240;8.548;2022-09-09T08:24:12;100162.97;;;25.59
19568;BMP280;9930;49.240;8.548;2022-09-09T08:26:45;100185.03;;;25.49
19568;BMP280;9930;49.240;8.548;2022-09-09T08:29:13;100175.13;;;25.29
19568;BMP280;9930;49.240;8.548;2022-09-09T08:31:49;100175.72;;;25.06
19568;BMP280;9930;49.240;8.548;2022-09-09T08:34:15;100170.81;;;24.93
19568;BMP280;9930;49.240;8.548;2022-09-09T08:36:44;100159.16;;;24.72
19568;BMP280;9930;49.240;8.548;2022-09-09T08:39:14;100177.50;;;24.69
19568;BMP280;9930;49.240;8.548;2022-09-09T08:53:04;100171.34;;;24.34
19568;BMP280;9930;49.240;8.548;2022-09-09T08:55:45;100174.75;;;24.38
19568;BMP280;9930;49.240;8.548;2022-09-09T08:58:34;100179.88;;;24.41
19568;BMP280;9930;49.240;8.548;2022-09-09T09:13:48;100175.69;;;24.71
19568;BMP280;9930;49.240;8.548;2022-09-09T09:16:22;100179.84;;;24.79
19568;BMP280;9930;49.240;8.548;2022-09-09T09:18:49;100165.84;;;24.82
19568;BMP280;9930;49.240;8.548;2022-09-09T09:21:43;100174.28;;;24.93
19568;BMP280;9930;49.240;8.548;2022-09-09T09:24:50;100175.03;;;24.98
19568;BMP280;9930;49.240;8.548;2022-09-09T09:27:31;100168.25;;;24.91
19568;BMP280;9930;49.240;8.548;2022-09-09T09:30:02;100178.47;;;25.00
19568;BMP280;9930;49.240;8.548;2022-09-09T09:32:34;100167.13;;;25.01
19568;BMP280;9930;49.240;8.548;2022-09-09T09:35:12;100161.16;;;24.98
19568;BMP280;9930;49.240;8.548;2022-09-09T09:37:42;100168.78;;;25.05
19568;BMP280;9930;49.240;8.548;2022-09-09T09:40:20;100164.06;;;25.20
19568;BMP280;9930;49.240;8.548;2022-09-09T09:42:57;100155.97;;;25.29
19568;BMP280;9930;49.240;8.548;2022-09-09T09:45:32;100165.88;;;25.48
19568;BMP280;9930;49.240;8.548;2022-09-09T09:48:12;100168.88;;;25.67
19568;BMP280;9930;49.240;8.548;2022-09-09T09:51:13;100166.59;;;25.86
19568;BMP280;9930;49.240;8.548;2022-09-09T09:53:42;100157.41;;;26.01
19568;BMP280;9930;49.240;8.548;2022-09-09T09:56:13;100148.47;;;26.08
19568;BMP280;9930;49.240;8.548;2022-09-09T10:01:34;100162.19;;;26.16
19568;BMP280;9930;49.240;8.548;2022-09-09T10:04:18;100170.88;;;26.17
19568;BMP280;9930;49.240;8.548;2022-09-09T10:06:46;100173.53;;;26.15
19568;BMP280;9930;49.240;8.548;2022-09-09T10:09:33;100177.31;;;26.05
19568;BMP280;9930;49.240;8.548;2022-09-09T10:18:50;100174.47;;;25.85
19568;BMP280;9930;49.240;8.548;2022-09-09T10:21:59;100166.69;;;25.83
19568;BMP280;9930;49.240;8.548;2022-09-09T10:27:44;100160.19;;;25.96
19568;BMP280;9930;49.240;8.548;2022-09-09T10:30:22;100148.78;;;25.99
19568;BMP280;9930;49.240;8.548;2022-09-09T10:38:48;100144.09;;;26.08
19568;BMP280;9930;49.240;8.548;2022-09-09T10:47:07;100136.88;;;26.17
19568;BMP280;9930;49.240;8.548;2022-09-09T10:50:14;100130.91;;;26.13
19568;BMP280;9930;49.240;8.548;2022-09-09T10:55:52;100130.00;;;26.14
19568;BMP280;9930;49.240;8.548;2022-09-09T10:58:59;100133.38;;;26.18
19568;BMP280;9930;49.240;8.548;2022-09-09T11:01:51;100133.31;;;26.19
19568;BMP280;9930;49.240;8.548;2022-09-09T11:04:27;100128.25;;;26.14
19568;BMP280;9930;49.240;8.548;2022-09-09T11:06:56;100134.28;;;26.17
19568;BMP280;9930;49.240;8.548;2022-09-09T11:09:30;100130.75;;;26.18
19568;BMP280;9930;49.240;8.548;2022-09-09T11:12:00;100123.97;;;26.12
19568;BMP280;9930;49.240;8.548;2022-09-09T11:14:47;100133.22;;;26.22
19568;BMP280;9930;49.240;8.548;2022-09-09T11:17:28;100139.22;;;26.26
19568;BMP280;9930;49.240;8.548;2022-09-09T11:19:57;100110.75;;;26.17
19568;BMP280;9930;49.240;8.548;2022-09-09T11:25:35;100135.44;;;26.36
19568;BMP280;9930;49.240;8.548;2022-09-09T11:31:27;100125.75;;;26.39
19568;BMP280;9930;49.240;8.548;2022-09-09T11:40:03;100123.38;;;26.58
19568;BMP280;9930;49.240;8.548;2022-09-09T11:42:35;100103.16;;;26.63
19568;BMP280;9930;49.240;8.548;2022-09-09T11:45:23;100093.31;;;26.71
19568;BMP280;9930;49.240;8.548;2022-09-09T11:47:59;100087.97;;;26.74
19568;BMP280;9930;49.240;8.548;2022-09-09T11:55:35;100088.50;;;26.84
19568;BMP280;9930;49.240;8.548;2022-09-09T11:58:24;100090.06;;;26.90
19568;BMP280;9930;49.240;8.548;2022-09-09T12:00:53;100085.56;;;26.93
19568;BMP280;9930;49.240;8.548;2022-09-09T12:03:48;100077.31;;;27.05
19568;BMP280;9930;49.240;8.548;2022-09-09T12:06:28;100076.06;;;27.16
19568;BMP280;9930;49.240;8.548;2022-09-09T12:17:24;100086.25;;;27.71
19568;BMP280;9930;49.240;8.548;2022-09-09T12:20:20;100079.38;;;27.69
19568;BMP280;9930;49.240;8.548;2022-09-09T12:23:45;100099.00;;;27.57
19568;BMP280;9930;49.240;8.548;2022-09-09T12:26:56;100097.84;;;27.41
19568;BMP280;9930;49.240;8.548;2022-09-09T12:29:55;100087.19;;;27.22
19568;BMP280;9930;49.240;8.548;2022-09-09T12:32:26;100080.63;;;27.10
19568;BMP280;9930;49.240;8.548;2022-09-09T12:35:19;100104.44;;;27.03
19568;BMP280;9930;49.240;8.548;2022-09-09T12:37:58;100092.94;;;26.82
19568;BMP280;9930;49.240;8.548;2022-09-09T12:40:33;100106.16;;;26.77
19568;BMP280;9930;49.240;8.548;2022-09-09T12:43:20;100106.53;;;26.67
19568;BMP280;9930;49.240;8.548;2022-09-09T12:45:52;100107.75;;;26.57
19568;BMP280;9930;49.240;8.548;2022-09-09T12:48:41;100104.53;;;26.49
19568;BMP280;9930;49.240;8.548;2022-09-09T12:51:28;100110.06;;;26.39
19568;BMP280;9930;49.240;8.548;2022-09-09T12:53:58;100118.94;;;26.34
19568;BMP280;9930;49.240;8.548;2022-09-09T12:56:32;100094.97;;;26.20
19568;BMP280;9930;49.240;8.548;2022-09-09T12:58:58;100106.28;;;26.20
19568;BMP280;9930;49.240;8.548;2022-09-09T13:01:34;100113.97;;;26.25
19568;BMP280;9930;49.240;8.548;2022-09-09T13:04:02;100112.31;;;26.22
19568;BMP280;9930;49.240;8.548;2022-09-09T13:06:32;100108.03;;;26.20
19568;BMP280;9930;49.240;8.548;2022-09-09T13:09:00;100110.00;;;26.13
19568;BMP280;9930;49.240;8.548;2022-09-09T13:12:03;100121.34;;;26.12
19568;BMP280;9930;49.240;8.548;2022-09-09T13:14:33;100153.00;;;26.03
19568;BMP280;9930;49.240;8.548;2022-09-09T13:17:19;100156.22;;;25.83
19568;BMP280;9930;49.240;8.548;2022-09-09T13:19:46;100165.06;;;25.79
19568;BMP280;9930;49.240;8.548;2022-09-09T13:22:31;100157.75;;;25.59
19568;BMP280;9930;49.240;8.548;2022-09-09T13:28:22;100133.59;;;25.20
19568;BMP280;9930;49.240;8.548;2022-09-09T13:31:04;100118.25;;;25.08
19568;BMP280;9930;49.240;8.548;2022-09-09T13:33:39;100109.84;;;24.97
19568;BMP280;9930;49.240;8.548;2022-09-09T13:36:12;100100.59;;;24.83
19568;BMP280;9930;49.240;8.548;2022-09-09T13:41:35;100101.72;;;24.73
19568;BMP280;9930;49.240;8.548;2022-09-09T13:44:03;100111.13;;;24.80
19568;BMP280;9930;49.240;8.548;2022-09-09T13:46:42;100085.13;;;24.77
19568;BMP280;9930;49.240;8.548;2022-09-09T13:51:47;100086.91;;;25.09
19568;BMP280;9930;49.240;8.548;2022-09-09T13:54:18;100066.75;;;25.14
19568;BMP280;9930;49.240;8.548;2022-09-09T13:56:46;100074.25;;;25.27
19568;BMP280;9930;49.240;8.548;2022-09-09T13:59:16;100082.50;;;25.42
19568;BMP280;9930;49.240;8.548;2022-09-09T14:01:45;100066.75;;;25.45
19568;BMP280;9930;49.240;8.548;2022-09-09T14:04:15;100069.19;;;25.52
19568;BMP280;9930;49.240;8.548;2022-09-09T14:06:45;100079.25;;;25.65
19568;BMP280;9930;49.240;8.548;2022-09-09T14:09:15;100065.34;;;25.63
19568;BMP280;9930;49.240;8.548;2022-09-09T14:11:44;100063.50;;;25.68
19568;BMP280;9930;49.240;8.548;2022-09-09T14:14:15;100059.16;;;25.67
19568;BMP280;9930;49.240;8.548;2022-09-09T14:16:45;100071.19;;;25.73
19568;BMP280;9930;49.240;8.548;2022-09-09T14:19:16;100067.72;;;25.72
19568;BMP280;9930;49.240;8.548;2022-09-09T14:21:42;100053.13;;;25.65
19568;BMP280;9930;49.240;8.548;2022-09-09T14:24:12;100052.34;;;25.62
19568;BMP280;9930;49.240;8.548;2022-09-09T14:26:42;100053.25;;;25.61
19568;BMP280;9930;49.240;8.548;2022-09-09T14:29:12;100066.91;;;25.70
19568;BMP280;9930;49.240;8.548;2022-09-09T14:31:45;100073.91;;;25.70
19568;BMP280;9930;49.240;8.548;2022-09-09T14:34:12;100071.28;;;25.70
19568;BMP280;9930;49.240;8.548;2022-09-09T14:36:42;100070.41;;;25.69
19568;BMP280;9930;49.240;8.548;2022-09-09T14:39:12;100073.91;;;25.70
19568;BMP280;9930;49.240;8.548;2022-09-09T14:41:42;100066.91;;;25.70
19568;BMP280;9930;49.240;8.548;2022-09-09T14:44:18;100054.75;;;25.69
19568;BMP280;9930;49.240;8.548;2022-09-09T14:46:44;100054.78;;;25.68
19568;BMP280;9930;49.240;8.548;2022-09-09T14:49:13;100055.75;;;25.64
19568;BMP280;9930;49.240;8.548;2022-09-09T14:51:42;100066.16;;;25.67
19568;BMP280;9930;49.240;8.548;2022-09-09T14:54:12;100067.25;;;25.58
19568;BMP280;9930;49.240;8.548;2022-09-09T14:56:42;100087.16;;;25.62
19568;BMP280;9930;49.240;8.548;2022-09-09T14:59:12;100093.28;;;25.61
19568;BMP280;9930;49.240;8.548;2022-09-09T15:01:42;100088.19;;;25.57
19568;BMP280;9930;49.240;8.548;2022-09-09T15:04:13;100094.22;;;25.59
19568;BMP280;9930;49.240;8.548;2022-09-09T15:06:42;100083.94;;;25.53
19568;BMP280;9930;49.240;8.548;2022-09-09T15:09:16;100089.03;;;25.57
19568;BMP280;9930;49.240;8.548;2022-09-09T15:11:42;100090.03;;;25.53
19568;BMP280;9930;49.240;8.548;2022-09-09T15:14:15;100090.88;;;25.54
19568;BMP280;9930;49.240;8.548;2022-09-09T15:16:45;100089.88;;;25.58
19568;BMP280;9930;49.240;8.548;2022-09-09T15:19:12;100086.56;;;25.53
19568;BMP280;9930;49.240;8.548;2022-09-09T15:21:42;100100.25;;;25.61
19568;BMP280;9930;49.240;8.548;2022-09-09T15:24:08;100087.31;;;25.56
19568;BMP280;9930;49.240;8.548;2022-09-09T15:26:42;100088.13;;;25.58
19568;BMP280;9930;49.240;8.548;2022-09-09T15:29:12;100101.91;;;25.65
19568;BMP280;9930;49.240;8.548;2022-09-09T15:31:42;100076.78;;;25.59
19568;BMP280;9930;49.240;8.548;2022-09-09T15:34:13;100083.72;;;25.60
19568;BMP280;9930;49.240;8.548;2022-09-09T15:36:44;100082.66;;;25.67
19568;BMP280;9930;49.240;8.548;2022-09-09T15:39:15;100086.06;;;25.71
19568;BMP280;9930;49.240;8.548;2022-09-09T15:41:44;100065.97;;;25.73
19568;BMP280;9930;49.240;8.548;2022-09-09T15:44:17;100084.03;;;25.80
19568;BMP280;9930;49.240;8.548;2022-09-09T15:46:45;100085.59;;;25.86
19568;BMP280;9930;49.240;8.548;2022-09-09T15:49:21;100069.88;;;25.88
19568;BMP280;9930;49.240;8.548;2022-09-09T15:51:54;100085.22;;;25.98
19568;BMP280;9930;49.240;8.548;2022-09-09T15:54:22;100093.88;;;26.00
19568;BMP280;9930;49.240;8.548;2022-09-09T15:56:58;100087.88;;;25.97
19568;BMP280;9930;49.240;8.548;2022-09-09T15:59:27;100103.38;;;26.01
19568;BMP280;9930;49.240;8.548;2022-09-09T16:01:58;100111.34;;;25.98
19568;BMP280;9930;49.240;8.548;2022-09-09T16:04:26;100106.25;;;25.94
19568;BMP280;9930;49.240;8.548;2022-09-09T16:07:00;100109.06;;;25.88
19568;BMP280;9930;49.240;8.548;2022-09-09T16:09:27;100113.63;;;25.81
19568;BMP280;9930;49.240;8.548;2022-09-09T16:11:57;100115.50;;;25.76
19568;BMP280;9930;49.240;8.548;2022-09-09T16:14:31;100123.53;;;25.70
19568;BMP280;9930;49.240;8.548;2022-09-09T16:16:59;100130.63;;;25.65
19568;BMP280;9930;49.240;8.548;2022-09-09T16:19:26;100132.53;;;25.58
19568;BMP280;9930;49.240;8.548;2022-09-09T16:21:54;100124.06;;;25.50
19568;BMP280;9930;49.240;8.548;2022-09-09T16:24:20;100128.44;;;25.49
19568;BMP280;9930;49.240;8.548;2022-09-09T16:26:51;100126.81;;;25.45
19568;BMP280;9930;49.240;8.548;2022-09-09T16:29:18;100118.25;;;25.40
19568;BMP280;9930;49.240;8.548;2022-09-09T16:31:48;100110.66;;;25.31
19568;BMP280;9930;49.240;8.548;2022-09-09T16:34:19;100124.56;;;25.32
19568;BMP280;9930;49.240;8.548;2022-09-09T16:36:47;100112.75;;;25.18
19568;BMP280;9930;49.240;8.548;2022-09-09T16:39:19;100112.06;;;25.12
19568;BMP280;9930;49.240;8.548;2022-09-09T16:41:49;100121.69;;;25.10
19568;BMP280;9930;49.240;8.548;2022-09-09T16:44:17;100112.44;;;24.98